ENMH

Mehamn Airport

Mehamn, Norway
METAR ENMH 142150Z 26007KT 9999 OVC026 08/04 Q1010
Observed Flight Rules
Aug-14 @ 21:50 UTC (3 hours ago) Marginal Visual Flight Rules
Wind Visibility Clouds
260° at 7 knots 10,000+ meters
  • Overcast at 2,600' AGL
Temperatures Readings
Current 8°C / 46°F
Dewpoint 4°C / 39°F
Humidity 76%
Altimeter 29.82" Hg
Pressure 1010 hPa
Elevation 13
METAR ENMH 142150Z 26007KT 9999 OVC026 08/04 Q1010
Observed Flight Rules
Aug-14 @ 21:50 UTC
(3 hours ago)
MVFR
Wind Visibility
260° at 7 knots 10,000+ meters
Clouds
  • Overcast at 2,600' AGL
Temperature Dewpoint
8°C / 46°F 4°C / 39°F
Humidity Altimeter Pressure
76% 29.82" Hg 1010 hPa